createdAt,value
2022-11-06T00:01:12.727Z,7.40
2022-11-06T00:03:40.360Z,7.43
2022-11-06T00:06:33.197Z,7.37
2022-11-06T00:09:01.901Z,7.16
2022-11-06T00:11:28.591Z,7.14
2022-11-06T00:13:57.495Z,7.15
2022-11-06T00:16:24.486Z,7.11
2022-11-06T00:18:51.978Z,7.11
2022-11-06T00:21:22.949Z,7.16
2022-11-06T00:23:51.202Z,7.16
2022-11-06T00:26:20.935Z,7.17
2022-11-06T00:28:49.045Z,7.19
2022-11-06T00:31:19.060Z,7.10
2022-11-06T00:33:45.742Z,7.00
2022-11-06T00:36:15.299Z,6.90
2022-11-06T00:38:43.947Z,6.85
2022-11-06T00:41:14.076Z,6.78
2022-11-06T00:43:41.432Z,6.74
2022-11-06T00:46:13.318Z,6.67
2022-11-06T00:48:41.333Z,6.50
2022-11-06T00:51:16.926Z,6.27
2022-11-06T00:53:45.272Z,6.11
2022-11-06T00:56:17.885Z,5.99
2022-11-06T00:58:45.703Z,5.99
2022-11-06T01:01:23.503Z,5.88
2022-11-06T01:03:57.870Z,5.86
2022-11-06T01:06:28.129Z,5.92
2022-11-06T01:08:55.604Z,5.85
2022-11-06T01:11:23.865Z,5.78
2022-11-06T01:13:53.947Z,5.70
2022-11-06T01:16:21.366Z,5.70
2022-11-06T01:18:49.333Z,5.64
2022-11-06T01:21:19.846Z,5.54
2022-11-06T01:23:47.607Z,5.58
2022-11-06T01:26:18.629Z,5.58
2022-11-06T01:28:57.222Z,5.55
2022-11-06T01:31:27.393Z,5.55
2022-11-06T01:34:01.360Z,5.53
2022-11-06T01:36:29.016Z,5.45
2022-11-06T01:38:59.650Z,5.48
2022-11-06T01:41:30.071Z,5.55
2022-11-06T01:44:18.053Z,5.66
2022-11-06T01:46:45.443Z,5.72
2022-11-06T01:49:16.555Z,5.70
2022-11-06T01:51:56.832Z,5.71
2022-11-06T01:54:31.935Z,5.71
2022-11-06T01:57:01.659Z,5.75
2022-11-06T01:59:31.846Z,5.74
2022-11-06T02:01:58.893Z,5.77
2022-11-06T02:04:38.761Z,5.77
2022-11-06T02:07:06.698Z,5.81
2022-11-06T02:09:35.288Z,5.77
2022-11-06T02:12:30.858Z,5.75
2022-11-06T02:15:07.485Z,5.76
2022-11-06T02:17:46.409Z,5.76
2022-11-06T02:20:29.111Z,5.78
2022-11-06T02:23:17.683Z,5.73
2022-11-06T02:25:54.367Z,5.65
2022-11-06T02:28:39.542Z,5.58
2022-11-06T02:31:12.462Z,5.54
2022-11-06T02:33:47.699Z,5.48
2022-11-06T02:36:23.152Z,5.49
2022-11-06T02:38:56.586Z,5.50
2022-11-06T02:41:31.108Z,5.37
2022-11-06T02:43:59.486Z,5.43
2022-11-06T02:46:33.639Z,5.41
2022-11-06T02:49:09.502Z,5.26
2022-11-06T02:51:41.338Z,5.22
2022-11-06T02:54:12.044Z,5.13
2022-11-06T02:56:43.499Z,5.13
2022-11-06T02:59:15.043Z,4.98
2022-11-06T03:02:05.567Z,4.96
2022-11-06T03:04:51.865Z,4.84
2022-11-06T03:07:28.931Z,4.84
2022-11-06T03:09:56.067Z,4.79
2022-11-06T03:12:25.591Z,4.82
2022-11-06T03:15:19.243Z,4.71
2022-11-06T03:18:18.972Z,4.67
2022-11-06T03:20:54.727Z,4.55
2022-11-06T03:23:42.286Z,4.53
2022-11-06T03:26:17.570Z,4.62
2022-11-06T03:28:59.607Z,4.60
2022-11-06T03:31:32.724Z,4.58
2022-11-06T03:34:05.086Z,4.51
2022-11-06T03:36:37.315Z,4.54
2022-11-06T03:39:09.972Z,4.56
2022-11-06T03:41:52.110Z,4.60
2022-11-06T03:44:21.966Z,4.56
2022-11-06T03:46:56.080Z,4.49
2022-11-06T03:49:37.007Z,4.38
2022-11-06T03:52:11.089Z,4.45
2022-11-06T03:54:49.924Z,4.42
2022-11-06T03:57:24.644Z,4.37
2022-11-06T03:59:55.723Z,4.25
2022-11-06T04:02:26.158Z,4.32
2022-11-06T04:05:00.766Z,4.29
2022-11-06T04:07:36.994Z,4.37
2022-11-06T04:10:27.202Z,4.39
2022-11-06T04:13:16.220Z,4.50
2022-11-06T04:15:53.652Z,4.53
2022-11-06T04:18:21.636Z,4.54
2022-11-06T04:21:23.018Z,4.54
2022-11-06T04:24:12.737Z,4.57
2022-11-06T04:26:53.622Z,4.61
2022-11-06T04:29:26.234Z,4.52
2022-11-06T04:32:08.488Z,4.53
2022-11-06T04:34:44.837Z,4.54
2022-11-06T04:37:53.591Z,4.33
2022-11-06T04:40:29.709Z,4.45
2022-11-06T04:43:02.082Z,4.53
2022-11-06T04:45:36.298Z,4.51
2022-11-06T04:48:05.651Z,4.60
2022-11-06T04:50:41.772Z,4.60
2022-11-06T04:53:10.814Z,4.70
2022-11-06T04:56:00.163Z,4.63
2022-11-06T04:58:27.952Z,4.61
2022-11-06T05:00:54.515Z,4.72
2022-11-06T05:03:21.069Z,4.59
2022-11-06T05:05:47.659Z,4.47
2022-11-06T05:08:16.974Z,4.57
2022-11-06T05:10:44.798Z,4.60
2022-11-06T05:13:12.121Z,4.61
2022-11-06T05:15:39.020Z,4.54
2022-11-06T05:18:06.570Z,4.54
2022-11-06T05:20:33.755Z,4.56
2022-11-06T05:23:03.130Z,4.56
2022-11-06T05:25:37.955Z,4.52
2022-11-06T05:28:07.276Z,4.52
2022-11-06T05:30:36.441Z,4.59
2022-11-06T05:33:03.639Z,4.63
2022-11-06T05:35:30.530Z,4.65
2022-11-06T05:38:02.239Z,4.65
2022-11-06T05:40:29.313Z,4.55
2022-11-06T05:42:56.098Z,4.66
2022-11-06T05:45:23.051Z,4.62
2022-11-06T05:47:49.779Z,4.66
2022-11-06T05:50:16.724Z,4.60
2022-11-06T05:52:43.448Z,4.57
2022-11-06T05:55:14.781Z,4.50
2022-11-06T05:57:42.594Z,4.37
2022-11-06T06:00:11.194Z,4.35
2022-11-06T06:02:48.082Z,4.37
2022-11-06T06:05:14.767Z,4.43
2022-11-06T06:07:41.324Z,4.49
2022-11-06T06:10:08.476Z,4.60
2022-11-06T06:12:35.347Z,4.65
2022-11-06T06:15:01.853Z,4.69
2022-11-06T06:17:28.293Z,4.61
2022-11-06T06:19:54.839Z,4.60
2022-11-06T06:22:21.231Z,4.61
2022-11-06T06:24:47.806Z,4.50
2022-11-06T06:27:14.305Z,4.52
2022-11-06T06:29:40.790Z,4.48
2022-11-06T06:32:07.301Z,4.54
2022-11-06T06:34:33.860Z,4.62
2022-11-06T06:37:00.390Z,4.65
2022-11-06T06:39:26.894Z,4.70
2022-11-06T06:41:53.505Z,4.75
2022-11-06T06:44:20.169Z,4.82
2022-11-06T06:46:46.746Z,4.78
2022-11-06T06:49:13.248Z,4.66
2022-11-06T06:51:39.680Z,4.31
2022-11-06T06:54:06.192Z,4.02
2022-11-06T06:56:32.616Z,3.60
2022-11-06T06:58:59.104Z,3.74
2022-11-06T07:01:25.715Z,3.97
2022-11-06T07:03:52.360Z,4.09
2022-11-06T07:06:19.738Z,4.41
2022-11-06T07:08:46.567Z,4.61
2022-11-06T07:11:13.384Z,4.68
2022-11-06T07:13:39.881Z,4.81
2022-11-06T07:16:08.786Z,4.92
2022-11-06T07:18:35.994Z,5.11
2022-11-06T07:21:08.551Z,5.13
2022-11-06T07:23:36.458Z,5.13
2022-11-06T07:26:04.285Z,5.13
2022-11-06T07:28:31.117Z,5.16
2022-11-06T07:30:59.807Z,5.13
2022-11-06T07:33:26.539Z,5.11
2022-11-06T07:35:53.164Z,4.90
2022-11-06T07:38:19.653Z,4.58
2022-11-06T07:40:46.179Z,4.83
2022-11-06T07:43:13.082Z,4.93
2022-11-06T07:45:39.721Z,5.04
2022-11-06T07:48:06.558Z,5.15
2022-11-06T07:50:33.241Z,5.22
2022-11-06T07:53:03.055Z,5.38
2022-11-06T07:55:29.617Z,5.35
2022-11-06T07:57:56.130Z,5.15
2022-11-06T08:00:22.568Z,5.07
2022-11-06T08:02:53.422Z,5.13
2022-11-06T08:05:20.761Z,5.07
2022-11-06T08:07:47.350Z,4.80
2022-11-06T08:10:14.129Z,4.91
2022-11-06T08:12:40.740Z,4.95
2022-11-06T08:15:07.477Z,5.12
2022-11-06T08:17:33.907Z,5.08
2022-11-06T08:20:00.379Z,5.09
2022-11-06T08:22:26.847Z,5.27
2022-11-06T08:24:53.309Z,5.40
2022-11-06T08:27:19.699Z,5.13
2022-11-06T08:29:46.166Z,5.31
2022-11-06T08:32:12.670Z,5.45
2022-11-06T08:34:39.242Z,5.61
2022-11-06T08:37:05.816Z,5.54
2022-11-06T08:39:32.374Z,5.62
2022-11-06T08:41:59.043Z,5.94
2022-11-06T08:44:25.542Z,6.06
2022-11-06T08:46:52.517Z,6.12
2022-11-06T08:49:19.307Z,6.30
2022-11-06T08:51:45.872Z,6.36
2022-11-06T08:54:14.478Z,6.36
2022-11-06T08:56:42.061Z,6.44
2022-11-06T08:59:08.688Z,6.42
2022-11-06T09:01:35.404Z,6.43
2022-11-06T09:04:02.098Z,6.58
2022-11-06T09:06:28.552Z,6.56
2022-11-06T09:08:56.068Z,6.86
2022-11-06T09:11:22.573Z,6.93
2022-11-06T09:13:49.120Z,6.93
2022-11-06T09:16:16.346Z,7.07
2022-11-06T09:18:43.536Z,7.24
2022-11-06T09:21:10.356Z,7.32
2022-11-06T09:23:37.054Z,7.35
2022-11-06T09:26:03.809Z,7.30
2022-11-06T09:28:30.292Z,7.49
2022-11-06T09:30:56.786Z,7.47
2022-11-06T09:33:23.509Z,7.48
2022-11-06T09:35:53.186Z,7.52
2022-11-06T09:38:19.949Z,7.40
2022-11-06T09:40:49.666Z,7.55
2022-11-06T09:44:06.674Z,7.61
2022-11-06T09:46:45.945Z,7.76
2022-11-06T09:49:28.009Z,7.92
2022-11-06T09:52:08.333Z,7.87
2022-11-06T09:54:37.589Z,7.66
2022-11-06T09:57:18.618Z,7.69
2022-11-06T09:59:47.205Z,7.74
2022-11-06T10:02:38.587Z,8.01
2022-11-06T10:05:16.042Z,8.05
2022-11-06T10:07:44.441Z,8.22
2022-11-06T10:10:24.003Z,8.28
2022-11-06T10:13:11.559Z,8.21
2022-11-06T10:16:02.554Z,8.34
2022-11-06T10:18:59.024Z,8.34
2022-11-06T10:21:42.161Z,8.50
2022-11-06T10:24:21.610Z,8.51
2022-11-06T10:26:53.917Z,8.60
2022-11-06T10:29:41.172Z,8.56
2022-11-06T10:32:26.674Z,8.42
2022-11-06T10:35:04.336Z,8.34
2022-11-06T10:37:41.156Z,8.42
2022-11-06T10:40:18.217Z,8.54
2022-11-06T10:42:53.142Z,8.71
2022-11-06T10:45:21.615Z,8.55
2022-11-06T10:47:55.648Z,8.71
2022-11-06T10:50:28.601Z,8.46
2022-11-06T10:53:09.458Z,8.59
2022-11-06T10:56:11.124Z,8.37
2022-11-06T10:58:38.349Z,8.61
2022-11-06T11:01:11.207Z,8.74
2022-11-06T11:03:43.247Z,8.50
2022-11-06T11:06:10.117Z,8.59
2022-11-06T11:08:40.736Z,8.62
2022-11-06T11:11:23.371Z,8.67
2022-11-06T11:13:58.473Z,8.58
2022-11-06T11:16:32.987Z,8.57
2022-11-06T11:19:41.389Z,8.50
2022-11-06T11:22:19.277Z,8.61
2022-11-06T11:25:25.028Z,8.67
2022-11-06T11:27:51.885Z,8.58
2022-11-06T11:30:27.803Z,8.51
2022-11-06T11:32:56.817Z,8.55
2022-11-06T11:35:32.866Z,8.61
2022-11-06T11:38:16.111Z,8.61
2022-11-06T11:40:43.999Z,8.65
2022-11-06T11:43:19.793Z,8.93
2022-11-06T11:46:16.606Z,8.90
2022-11-06T11:48:48.955Z,9.08
2022-11-06T11:51:23.758Z,9.28
2022-11-06T11:53:52.968Z,9.41
2022-11-06T11:56:42.480Z,9.37
2022-11-06T11:59:18.634Z,9.42
2022-11-06T12:01:46.356Z,9.32
2022-11-06T12:04:21.171Z,9.24
2022-11-06T12:06:59.502Z,9.39
2022-11-06T12:09:28.097Z,9.34
2022-11-06T12:11:58.101Z,9.38
2022-11-06T12:14:36.699Z,9.24
2022-11-06T12:17:23.760Z,9.21
2022-11-06T12:19:53.654Z,9.13
2022-11-06T12:22:32.886Z,9.03
2022-11-06T12:25:33.744Z,9.16
2022-11-06T12:28:03.977Z,9.15
2022-11-06T12:30:33.979Z,9.22
2022-11-06T12:33:14.790Z,9.26
2022-11-06T12:36:00.160Z,9.17
2022-11-06T12:38:46.467Z,9.21
2022-11-06T12:41:25.336Z,9.20
2022-11-06T12:43:52.783Z,9.22
2022-11-06T12:46:49.909Z,9.43
2022-11-06T12:49:27.215Z,9.46
2022-11-06T12:52:01.346Z,9.49
2022-11-06T12:55:14.152Z,9.37
2022-11-06T12:58:01.107Z,9.30
2022-11-06T13:00:51.853Z,9.25
2022-11-06T13:03:37.136Z,9.15
2022-11-06T13:06:15.152Z,9.06
2022-11-06T13:09:02.824Z,8.90
2022-11-06T13:11:42.208Z,9.06
2022-11-06T13:14:36.074Z,9.14
2022-11-06T13:17:25.421Z,9.37
2022-11-06T13:20:03.639Z,9.43
2022-11-06T13:22:33.151Z,9.39
2022-11-06T13:25:14.984Z,9.32
2022-11-06T13:28:26.680Z,9.33
2022-11-06T13:30:55.345Z,9.32
2022-11-06T13:33:29.220Z,9.43
2022-11-06T13:35:56.665Z,9.49
2022-11-06T13:38:32.667Z,9.48
2022-11-06T13:41:05.740Z,9.41
2022-11-06T13:43:39.531Z,9.43
2022-11-06T13:46:11.399Z,9.46
2022-11-06T13:48:51.260Z,9.58
2022-11-06T13:51:47.842Z,9.49
2022-11-06T13:54:52.092Z,9.46
2022-11-06T13:57:52.889Z,9.59
2022-11-06T14:00:41.288Z,9.57
2022-11-06T14:03:51.802Z,9.49
2022-11-06T14:06:28.593Z,9.57
2022-11-06T14:08:59.457Z,9.60
2022-11-06T14:11:39.304Z,9.60
2022-11-06T14:14:12.020Z,9.64
2022-11-06T14:16:40.383Z,9.55
2022-11-06T14:19:14.697Z,9.55
2022-11-06T14:21:58.399Z,9.49
2022-11-06T14:24:32.451Z,9.38
2022-11-06T14:27:01.543Z,9.28
2022-11-06T14:29:28.196Z,9.10
2022-11-06T14:32:11.226Z,8.98
2022-11-06T14:34:40.081Z,8.90
2022-11-06T14:37:18.860Z,8.82
2022-11-06T14:39:51.447Z,8.70
2022-11-06T14:42:39.956Z,8.58
2022-11-06T14:45:15.132Z,8.57
2022-11-06T14:48:02.218Z,8.63
2022-11-06T14:50:35.826Z,8.67
2022-11-06T14:53:06.412Z,8.73
2022-11-06T14:56:05.745Z,8.85
2022-11-06T14:58:41.155Z,8.77
2022-11-06T15:01:10.793Z,8.76
2022-11-06T15:03:51.386Z,8.75
2022-11-06T15:06:18.063Z,8.89
2022-11-06T15:08:50.637Z,8.78
2022-11-06T15:11:32.455Z,8.79
2022-11-06T15:13:59.690Z,8.80
2022-11-06T15:17:00.168Z,8.80
2022-11-06T15:19:31.831Z,8.74
2022-11-06T15:22:41.587Z,8.61
2022-11-06T15:25:17.373Z,8.58
2022-11-06T15:27:59.540Z,8.59
2022-11-06T15:30:30.366Z,8.43
2022-11-06T15:32:57.752Z,8.38
2022-11-06T15:35:27.779Z,8.30
2022-11-06T15:38:05.189Z,8.19
2022-11-06T15:40:41.634Z,8.14
2022-11-06T15:43:17.440Z,8.07
2022-11-06T15:45:43.936Z,8.06
2022-11-06T15:48:23.979Z,8.11
2022-11-06T15:50:50.698Z,8.08
2022-11-06T15:53:21.525Z,8.07
2022-11-06T15:56:02.230Z,8.02
2022-11-06T15:58:33.043Z,7.87
2022-11-06T16:01:01.540Z,7.78
2022-11-06T16:03:50.211Z,7.73
2022-11-06T16:06:19.043Z,7.67
2022-11-06T16:08:46.152Z,7.67
2022-11-06T16:11:17.784Z,7.68
2022-11-06T16:13:48.426Z,7.66
2022-11-06T16:16:31.812Z,7.57
2022-11-06T16:18:58.769Z,7.52
2022-11-06T16:21:33.155Z,7.52
2022-11-06T16:24:04.574Z,7.48
2022-11-06T16:26:37.145Z,7.40
2022-11-06T16:29:16.951Z,7.45
2022-11-06T16:31:43.999Z,7.46
2022-11-06T16:34:35.662Z,7.56
2022-11-06T16:37:04.738Z,7.49
2022-11-06T16:39:48.087Z,7.53
2022-11-06T16:42:19.978Z,7.53
2022-11-06T16:44:48.129Z,7.54
2022-11-06T16:47:22.491Z,7.45
2022-11-06T16:49:54.659Z,7.40
2022-11-06T16:52:34.709Z,7.41
2022-11-06T16:55:02.684Z,7.47
2022-11-06T16:57:48.310Z,7.45
2022-11-06T17:00:20.918Z,7.38
2022-11-06T17:02:59.351Z,7.38
2022-11-06T17:05:28.752Z,7.44
2022-11-06T17:08:07.505Z,7.44
2022-11-06T17:10:42.438Z,7.47
2022-11-06T17:13:15.432Z,7.38
2022-11-06T17:15:44.012Z,7.34
2022-11-06T17:18:22.168Z,7.28
2022-11-06T17:20:53.212Z,7.28
2022-11-06T17:23:20.121Z,7.30
2022-11-06T17:25:47.838Z,7.36
2022-11-06T17:28:15.134Z,7.42
2022-11-06T17:30:41.790Z,7.42
2022-11-06T17:33:08.308Z,7.42
2022-11-06T17:35:34.740Z,7.40
2022-11-06T17:38:07.052Z,7.41
2022-11-06T17:40:34.130Z,7.30
2022-11-06T17:43:00.718Z,7.34
2022-11-06T17:45:27.097Z,7.26
2022-11-06T17:47:53.807Z,7.32
2022-11-06T17:50:20.711Z,7.31
2022-11-06T17:52:47.215Z,7.34
2022-11-06T17:55:13.889Z,7.32
2022-11-06T17:57:40.447Z,7.28
2022-11-06T18:00:07.874Z,7.24
2022-11-06T18:02:59.175Z,7.30
2022-11-06T18:05:20.786Z,7.21
2022-11-06T18:07:47.254Z,7.17
2022-11-06T18:10:13.711Z,7.12
2022-11-06T18:12:40.127Z,7.12
2022-11-06T18:15:07.321Z,7.09
2022-11-06T18:17:34.556Z,7.05
2022-11-06T18:20:00.984Z,7.05
2022-11-06T18:22:27.523Z,7.19
2022-11-06T18:24:54.293Z,7.23
2022-11-06T18:27:20.749Z,7.21
2022-11-06T18:29:47.212Z,7.13
2022-11-06T18:32:13.759Z,7.20
2022-11-06T18:34:40.416Z,7.14
2022-11-06T18:37:06.861Z,7.13
2022-11-06T18:39:33.298Z,7.08
2022-11-06T18:41:59.888Z,7.06
2022-11-06T18:44:29.736Z,7.07
2022-11-06T18:46:56.290Z,7.08
2022-11-06T18:49:22.815Z,7.05
2022-11-06T18:51:49.316Z,7.07
2022-11-06T18:54:15.930Z,7.11
2022-11-06T18:56:42.477Z,7.06
2022-11-06T18:59:15.539Z,7.08
2022-11-06T19:01:42.364Z,7.13
2022-11-06T19:04:10.584Z,7.21
2022-11-06T19:06:39.188Z,7.22
2022-11-06T19:09:07.586Z,7.10
2022-11-06T19:11:34.525Z,7.16
2022-11-06T19:14:04.116Z,7.28
2022-11-06T19:16:30.525Z,7.18
2022-11-06T19:21:28.991Z,7.12
2022-11-06T19:24:03.513Z,7.15
2022-11-06T19:26:32.334Z,7.12
2022-11-06T19:28:59.918Z,7.20
2022-11-06T19:31:29.177Z,7.19
2022-11-06T19:33:57.334Z,7.24
2022-11-06T19:36:25.204Z,7.31
2022-11-06T19:38:52.159Z,7.26
2022-11-06T19:41:18.701Z,7.24
2022-11-06T19:43:45.483Z,7.33
2022-11-06T19:46:12.156Z,7.31
2022-11-06T19:48:38.706Z,7.28
2022-11-06T19:51:10.636Z,7.25
2022-11-06T19:53:37.921Z,7.39
2022-11-06T19:56:05.997Z,7.34
2022-11-06T19:58:32.804Z,7.41
2022-11-06T20:00:59.439Z,7.43
2022-11-06T20:03:26.193Z,7.47
2022-11-06T20:05:54.312Z,7.51
2022-11-06T20:08:21.051Z,7.54
2022-11-06T20:10:57.214Z,7.58
2022-11-06T20:13:23.810Z,7.60
2022-11-06T20:15:50.363Z,7.47
2022-11-06T20:18:17.021Z,7.47
2022-11-06T20:20:43.509Z,7.56
2022-11-06T20:23:09.987Z,7.51
2022-11-06T20:25:36.411Z,7.50
2022-11-06T20:28:03.572Z,7.55
2022-11-06T20:30:30.723Z,7.58
2022-11-06T20:32:57.292Z,7.62
2022-11-06T20:35:23.856Z,7.68
2022-11-06T20:37:50.482Z,7.61
2022-11-06T20:40:17.168Z,7.57
2022-11-06T20:42:43.662Z,7.66
2022-11-06T20:45:10.258Z,7.57
2022-11-06T20:47:36.745Z,7.57
2022-11-06T20:50:04.055Z,7.56
2022-11-06T20:52:30.711Z,7.54
2022-11-06T20:54:57.409Z,7.56
2022-11-06T20:57:23.904Z,7.66
2022-11-06T20:59:53.284Z,7.61
2022-11-06T21:02:19.944Z,7.60
2022-11-06T21:04:47.023Z,7.48
2022-11-06T21:07:13.653Z,7.53
2022-11-06T21:09:40.327Z,7.49
2022-11-06T21:12:07.237Z,7.47
2022-11-06T21:14:33.920Z,7.51
2022-11-06T21:17:03.745Z,7.61
2022-11-06T21:19:30.325Z,7.59
2022-11-06T21:21:58.084Z,7.52
2022-11-06T21:24:25.269Z,7.62
2022-11-06T21:26:55.826Z,7.67
2022-11-06T21:29:23.957Z,7.67
2022-11-06T21:31:51.457Z,7.84
2022-11-06T21:34:19.263Z,7.74
2022-11-06T21:36:46.039Z,7.69
2022-11-06T21:39:15.583Z,7.74
2022-11-06T21:41:42.588Z,7.63
2022-11-06T21:44:13.588Z,7.52
2022-11-06T21:46:45.053Z,7.69
2022-11-06T21:49:12.578Z,7.72
2022-11-06T21:51:39.179Z,7.75
2022-11-06T21:54:24.162Z,7.73
2022-11-06T21:56:51.042Z,7.75
2022-11-06T21:59:20.164Z,7.75
2022-11-06T22:01:47.014Z,7.86
2022-11-06T22:04:13.631Z,7.84
2022-11-06T22:06:43.712Z,7.96
2022-11-06T22:09:12.296Z,7.92
2022-11-06T22:11:41.107Z,7.91
2022-11-06T22:14:11.559Z,7.91
2022-11-06T22:16:40.746Z,7.85
2022-11-06T22:19:08.993Z,7.85
2022-11-06T22:21:37.280Z,7.91
2022-11-06T22:24:04.256Z,7.90
2022-11-06T22:26:33.095Z,7.95
2022-11-06T22:29:01.545Z,7.91
2022-11-06T22:31:29.069Z,7.94
2022-11-06T22:33:55.934Z,7.95
2022-11-06T22:36:26.346Z,7.97
2022-11-06T22:38:53.152Z,8.03
2022-11-06T22:41:23.432Z,8.09
2022-11-06T22:43:50.648Z,8.00
2022-11-06T22:46:20.010Z,8.06
2022-11-06T22:48:47.323Z,8.13
2022-11-06T22:51:18.101Z,8.06
2022-11-06T22:53:44.543Z,7.91
2022-11-06T22:56:14.454Z,7.86
2022-11-06T22:58:41.652Z,7.99
2022-11-06T23:01:10.024Z,8.05
2022-11-06T23:03:37.130Z,7.99
2022-11-06T23:06:06.415Z,7.96
2022-11-06T23:08:33.586Z,7.92
2022-11-06T23:11:07.371Z,7.92
2022-11-06T23:13:34.340Z,7.88
2022-11-06T23:16:05.026Z,7.90
2022-11-06T23:18:31.892Z,7.85
2022-11-06T23:20:58.550Z,7.90
2022-11-06T23:23:25.472Z,7.81
2022-11-06T23:25:52.226Z,7.74
2022-11-06T23:28:19.052Z,7.76
2022-11-06T23:30:45.930Z,7.66
2022-11-06T23:33:12.616Z,7.66
2022-11-06T23:35:39.455Z,7.57
2022-11-06T23:38:05.968Z,7.60
2022-11-06T23:40:32.378Z,7.61
2022-11-06T23:42:58.826Z,7.69
2022-11-06T23:45:43.911Z,7.72
2022-11-06T23:48:14.263Z,7.86
2022-11-06T23:50:41.675Z,7.90
2022-11-06T23:53:08.134Z,7.96
2022-11-06T23:55:34.604Z,7.96
2022-11-06T23:58:01.137Z,8.01
